createdAt,value
2019-06-27T00:00:16.952Z,3.07
2019-06-27T00:02:46.224Z,3.10
2019-06-27T00:05:15.721Z,3.43
2019-06-27T00:07:44.918Z,2.83
2019-06-27T00:10:14.155Z,3.13
2019-06-27T00:12:43.250Z,2.70
2019-06-27T00:15:12.403Z,2.87
2019-06-27T00:17:41.632Z,3.17
2019-06-27T00:20:10.933Z,2.90
2019-06-27T00:22:41.250Z,3.10
2019-06-27T00:25:10.697Z,3.00
2019-06-27T00:27:39.766Z,3.00
2019-06-27T00:30:09.401Z,3.07
2019-06-27T00:32:38.415Z,2.17
2019-06-27T00:35:09.388Z,3.10
2019-06-27T00:37:38.491Z,2.13
2019-06-27T00:40:07.896Z,2.30
2019-06-27T00:42:36.972Z,2.30
2019-06-27T00:45:06.804Z,2.07
2019-06-27T00:47:35.803Z,2.30
2019-06-27T00:50:05.725Z,1.90
2019-06-27T00:52:34.809Z,1.77
2019-06-27T00:55:04.167Z,2.10
2019-06-27T00:57:33.294Z,2.57
2019-06-27T01:00:02.487Z,2.13
2019-06-27T01:02:31.586Z,2.07
2019-06-27T01:05:00.632Z,1.70
2019-06-27T01:07:29.805Z,1.63
2019-06-27T01:10:01.141Z,1.70
2019-06-27T01:12:29.688Z,1.53
2019-06-27T01:14:58.866Z,1.53
2019-06-27T01:17:27.978Z,1.57
2019-06-27T01:19:57.228Z,1.57
2019-06-27T01:22:29.436Z,1.40
2019-06-27T01:24:58.431Z,2.10
2019-06-27T01:27:30.338Z,1.63
2019-06-27T01:29:58.206Z,1.63
2019-06-27T01:32:27.413Z,2.57
2019-06-27T01:34:56.807Z,2.67
2019-06-27T01:37:25.996Z,2.83
2019-06-27T01:39:55.064Z,2.23
2019-06-27T01:42:24.124Z,2.20
2019-06-27T01:45:03.376Z,2.10
2019-06-27T01:47:32.480Z,3.30
2019-06-27T01:50:01.924Z,2.80
2019-06-27T01:52:31.106Z,2.97
2019-06-27T01:55:00.220Z,2.87
2019-06-27T01:57:42.426Z,2.80
2019-06-27T02:00:00.040Z,2.23
2019-06-27T02:02:29.636Z,2.47
2019-06-27T02:04:58.716Z,2.20
2019-06-27T02:07:27.811Z,2.07
2019-06-27T02:09:56.978Z,2.00
2019-06-27T02:12:26.364Z,2.03
2019-06-27T02:14:55.840Z,2.30
2019-06-27T02:17:24.925Z,1.90
2019-06-27T02:19:54.071Z,1.90
2019-06-27T02:22:23.253Z,2.00
2019-06-27T02:24:52.338Z,1.70
2019-06-27T02:27:21.514Z,1.80
2019-06-27T02:29:50.526Z,2.10
2019-06-27T02:32:19.649Z,1.80
2019-06-27T02:34:48.731Z,1.90
2019-06-27T02:37:17.880Z,1.93
2019-06-27T02:39:46.981Z,2.67
2019-06-27T02:42:16.131Z,3.10
2019-06-27T02:44:45.231Z,1.80
2019-06-27T02:47:14.711Z,2.03
2019-06-27T02:49:43.859Z,2.37
2019-06-27T02:52:13.080Z,3.73
2019-06-27T02:54:42.257Z,2.90
2019-06-27T02:57:11.698Z,2.53
2019-06-27T02:59:40.889Z,2.63
2019-06-27T03:02:10.035Z,2.50
2019-06-27T03:04:39.177Z,2.60
2019-06-27T03:07:08.262Z,2.33
2019-06-27T03:09:37.351Z,2.60
2019-06-27T03:12:06.515Z,2.63
2019-06-27T03:14:35.721Z,3.37
2019-06-27T03:17:04.819Z,2.93
2019-06-27T03:19:34.003Z,3.17
2019-06-27T03:22:05.812Z,2.80
2019-06-27T03:24:33.909Z,3.30
2019-06-27T03:27:03.106Z,2.57
2019-06-27T03:29:32.269Z,3.17
2019-06-27T03:32:01.360Z,3.63
2019-06-27T03:34:30.500Z,3.27
2019-06-27T03:36:59.677Z,2.40
2019-06-27T03:39:28.783Z,2.27
2019-06-27T03:41:57.908Z,3.10
2019-06-27T03:44:27.006Z,4.10
2019-06-27T03:46:56.122Z,3.53
2019-06-27T03:49:25.241Z,3.40
2019-06-27T03:51:54.470Z,3.70
2019-06-27T03:54:23.581Z,5.10
2019-06-27T03:56:52.775Z,4.30
2019-06-27T03:59:21.867Z,3.90
2019-06-27T04:01:50.999Z,4.80
2019-06-27T04:04:20.149Z,5.33
2019-06-27T04:06:49.256Z,5.60
2019-06-27T04:09:18.438Z,5.23
2019-06-27T04:11:47.531Z,5.40
2019-06-27T04:14:16.634Z,5.03
2019-06-27T04:16:48.936Z,4.50
2019-06-27T04:19:16.467Z,3.90
2019-06-27T04:21:45.571Z,4.80
2019-06-27T04:24:14.617Z,3.93
2019-06-27T04:26:43.766Z,3.87
2019-06-27T04:29:31.815Z,3.73
2019-06-27T04:31:43.950Z,6.33
2019-06-27T04:34:13.020Z,6.43
2019-06-27T04:36:42.202Z,5.33
2019-06-27T04:39:11.538Z,5.00
2019-06-27T04:41:40.649Z,5.63
2019-06-27T04:44:09.739Z,5.40
2019-06-27T04:46:38.900Z,7.13
2019-06-27T04:49:12.938Z,5.03
2019-06-27T04:51:38.735Z,5.70
2019-06-27T04:54:07.849Z,4.53
2019-06-27T04:56:36.959Z,6.43
2019-06-27T04:59:06.349Z,11.40
2019-06-27T05:01:35.500Z,12.67
2019-06-27T05:04:05.032Z,6.83
2019-06-27T05:06:34.197Z,6.93
2019-06-27T05:09:04.570Z,6.20
2019-06-27T05:11:33.679Z,6.30
2019-06-27T05:14:02.796Z,5.50
2019-06-27T05:16:31.883Z,3.70
2019-06-27T05:19:01.208Z,5.70
2019-06-27T05:21:30.475Z,4.70
2019-06-27T05:23:59.633Z,3.90
2019-06-27T05:26:28.867Z,6.37
2019-06-27T05:28:58.060Z,4.83
2019-06-27T05:31:27.042Z,4.83
2019-06-27T05:33:56.067Z,5.10
2019-06-27T05:36:25.112Z,5.20
2019-06-27T05:38:54.164Z,6.70
2019-06-27T05:41:23.278Z,5.40
2019-06-27T05:43:52.432Z,7.00
2019-06-27T05:46:21.481Z,6.83
2019-06-27T05:48:50.538Z,6.50
2019-06-27T05:51:20.090Z,8.80
2019-06-27T05:53:49.111Z,7.40
2019-06-27T05:56:18.563Z,6.13
2019-06-27T05:58:50.866Z,5.80
2019-06-27T06:01:18.521Z,7.43
2019-06-27T06:03:47.704Z,6.00
2019-06-27T06:06:16.856Z,6.10
2019-06-27T06:08:45.952Z,5.83
2019-06-27T06:11:15.111Z,8.73
2019-06-27T06:13:44.212Z,12.70
2019-06-27T06:16:13.232Z,11.20
2019-06-27T06:18:42.371Z,8.00
2019-06-27T06:21:11.731Z,8.53
2019-06-27T06:23:40.810Z,8.00
2019-06-27T06:26:09.971Z,7.90
2019-06-27T06:28:39.084Z,11.70
2019-06-27T06:31:08.113Z,8.07
2019-06-27T06:33:37.103Z,6.87
2019-06-27T06:36:06.291Z,6.80
2019-06-27T06:38:35.318Z,7.03
2019-06-27T06:41:04.546Z,6.13
2019-06-27T06:43:33.634Z,5.20
2019-06-27T06:46:03.212Z,3.70
2019-06-27T06:48:32.298Z,6.60
2019-06-27T06:51:01.287Z,5.30
2019-06-27T06:53:30.369Z,5.70
2019-06-27T06:55:59.422Z,4.40
2019-06-27T06:58:28.695Z,4.00
2019-06-27T07:01:02.017Z,5.17
2019-06-27T07:03:28.565Z,4.80
2019-06-27T07:05:57.712Z,4.30
2019-06-27T07:08:26.889Z,4.87
2019-06-27T07:10:55.932Z,5.17
2019-06-27T07:13:25.267Z,5.27
2019-06-27T07:15:54.429Z,4.57
2019-06-27T07:18:23.440Z,4.67
2019-06-27T07:20:52.518Z,4.30
2019-06-27T07:23:21.602Z,4.37
2019-06-27T07:25:50.716Z,4.20
2019-06-27T07:28:19.890Z,3.80
2019-06-27T07:30:49.079Z,4.00
2019-06-27T07:33:18.263Z,4.20
2019-06-27T07:35:47.452Z,4.60
2019-06-27T07:38:16.462Z,8.97
2019-06-27T07:40:45.559Z,6.63
2019-06-27T07:43:14.585Z,4.83
2019-06-27T07:45:43.634Z,3.23
2019-06-27T07:48:12.651Z,3.40
2019-06-27T07:50:41.816Z,3.80
2019-06-27T07:53:11.009Z,3.67
2019-06-27T07:55:40.354Z,3.83
2019-06-27T07:58:09.420Z,6.80
2019-06-27T08:00:38.591Z,4.87
2019-06-27T08:03:07.626Z,4.70
2019-06-27T08:05:36.755Z,3.60
2019-06-27T08:08:05.820Z,4.10
2019-06-27T08:10:34.891Z,3.97
2019-06-27T08:13:03.952Z,4.50
2019-06-27T08:15:33.459Z,3.87
2019-06-27T08:18:02.841Z,4.90
2019-06-27T08:20:32.244Z,5.20
2019-06-27T08:23:01.619Z,5.70
2019-06-27T08:25:30.705Z,4.23
2019-06-27T08:27:59.759Z,3.90
2019-06-27T08:30:29.224Z,3.03
2019-06-27T08:32:58.272Z,4.80
2019-06-27T08:35:27.665Z,4.03
2019-06-27T08:37:56.836Z,3.37
2019-06-27T08:40:25.983Z,3.70
2019-06-27T08:42:55.153Z,4.50
2019-06-27T08:45:24.331Z,3.93
2019-06-27T08:47:53.444Z,3.70
2019-06-27T08:50:22.590Z,4.47
2019-06-27T08:52:51.573Z,3.40
2019-06-27T08:55:20.686Z,3.07
2019-06-27T08:57:49.699Z,4.40
2019-06-27T09:00:18.951Z,2.40
2019-06-27T09:02:48.059Z,3.47
2019-06-27T09:05:17.240Z,2.70
2019-06-27T09:07:46.425Z,3.27
2019-06-27T09:10:15.890Z,2.67
2019-06-27T09:12:45.036Z,2.97
2019-06-27T09:15:14.748Z,2.67
2019-06-27T09:17:43.840Z,3.33
2019-06-27T09:20:13.530Z,3.50
2019-06-27T09:22:42.782Z,2.73
2019-06-27T09:25:12.020Z,2.83
2019-06-27T09:27:41.037Z,2.70
2019-06-27T09:30:11.416Z,2.40
2019-06-27T09:32:40.488Z,2.60
2019-06-27T09:35:11.007Z,2.37
2019-06-27T09:37:40.270Z,2.70
2019-06-27T09:40:11.079Z,2.30
2019-06-27T09:42:40.259Z,3.00
2019-06-27T09:45:09.989Z,2.80
2019-06-27T09:47:39.163Z,2.70
2019-06-27T09:50:09.654Z,2.53
2019-06-27T09:52:38.991Z,2.40
2019-06-27T09:55:08.703Z,2.67
2019-06-27T09:57:37.864Z,2.00
2019-06-27T10:00:07.427Z,2.77
2019-06-27T10:02:41.617Z,2.80
2019-06-27T10:05:08.012Z,3.17
2019-06-27T10:07:37.155Z,2.63
2019-06-27T10:10:06.589Z,2.90
2019-06-27T10:12:42.159Z,2.47
2019-06-27T10:15:06.994Z,2.20
2019-06-27T10:17:36.066Z,2.80
2019-06-27T10:20:06.831Z,2.40
2019-06-27T10:22:36.012Z,2.43
2019-06-27T10:25:05.674Z,2.20
2019-06-27T10:27:34.751Z,2.10
2019-06-27T10:30:04.567Z,3.00
2019-06-27T10:32:33.591Z,2.30
2019-06-27T10:35:02.769Z,2.50
2019-06-27T10:37:31.915Z,2.77
2019-06-27T10:40:00.977Z,2.17
2019-06-27T10:42:30.087Z,2.17
2019-06-27T10:44:59.117Z,1.87
2019-06-27T10:47:28.172Z,2.40
2019-06-27T10:49:57.212Z,1.97
2019-06-27T10:52:26.297Z,2.47
2019-06-27T10:54:55.385Z,2.13
2019-06-27T10:57:24.483Z,3.00
2019-06-27T10:59:53.547Z,1.90
2019-06-27T11:02:22.556Z,2.17
2019-06-27T11:04:51.668Z,2.10
2019-06-27T11:07:20.863Z,2.17
2019-06-27T11:09:50.392Z,1.87
2019-06-27T11:12:19.878Z,1.90
2019-06-27T11:14:58.696Z,2.20
2019-06-27T11:17:19.895Z,2.13
2019-06-27T11:19:52.591Z,1.80
2019-06-27T11:22:19.722Z,1.87
2019-06-27T11:24:48.715Z,1.97
2019-06-27T11:27:17.882Z,1.50
2019-06-27T11:29:47.029Z,2.63
2019-06-27T11:32:16.227Z,2.33
2019-06-27T11:34:46.136Z,2.40
2019-06-27T11:37:15.582Z,2.47
2019-06-27T11:39:44.883Z,1.90
2019-06-27T11:42:13.939Z,2.50
2019-06-27T11:44:43.041Z,2.23
2019-06-27T11:47:12.274Z,2.10
2019-06-27T11:49:41.461Z,2.03
2019-06-27T11:52:10.690Z,1.90
2019-06-27T11:54:40.576Z,1.57
2019-06-27T11:57:09.763Z,2.60
2019-06-27T11:59:39.056Z,2.40
2019-06-27T12:02:08.378Z,2.07
2019-06-27T12:04:37.629Z,2.00
2019-06-27T12:07:06.707Z,2.30
2019-06-27T12:09:35.964Z,1.73
2019-06-27T12:12:05.192Z,2.37
2019-06-27T12:14:36.457Z,2.10
2019-06-27T12:17:05.691Z,2.40
2019-06-27T12:19:35.288Z,1.83
2019-06-27T12:22:04.463Z,2.10
2019-06-27T12:24:33.596Z,2.03
2019-06-27T12:27:02.854Z,2.43
2019-06-27T12:29:31.996Z,1.90
2019-06-27T12:32:01.037Z,1.40
2019-06-27T12:34:30.745Z,1.47
2019-06-27T12:36:59.993Z,1.13
2019-06-27T12:39:29.352Z,1.80
2019-06-27T12:41:58.579Z,1.83
2019-06-27T12:44:28.283Z,1.83
2019-06-27T12:46:57.502Z,2.10
2019-06-27T12:49:44.478Z,2.20
2019-06-27T12:51:57.194Z,2.13
2019-06-27T12:54:26.204Z,1.73
2019-06-27T12:56:55.773Z,1.90
2019-06-27T12:59:25.378Z,2.07
2019-06-27T13:01:54.346Z,1.73
2019-06-27T13:04:24.305Z,1.60
2019-06-27T13:06:53.546Z,1.80
2019-06-27T13:09:22.726Z,1.60
2019-06-27T13:11:52.161Z,1.70
2019-06-27T13:14:21.416Z,1.60
2019-06-27T13:16:50.853Z,1.70
2019-06-27T13:19:20.025Z,1.67
2019-06-27T13:21:49.229Z,2.10
2019-06-27T13:24:20.108Z,2.47
2019-06-27T13:26:49.312Z,1.50
2019-06-27T13:29:18.544Z,2.00
2019-06-27T13:31:48.823Z,2.10
2019-06-27T13:34:18.058Z,1.47
2019-06-27T13:36:47.165Z,3.23
2019-06-27T13:39:16.360Z,1.50
2019-06-27T13:41:45.463Z,1.53
2019-06-27T13:44:14.748Z,1.80
2019-06-27T13:46:44.232Z,1.43
2019-06-27T13:49:13.432Z,2.13
2019-06-27T13:51:42.473Z,1.53
2019-06-27T13:54:11.583Z,1.27
2019-06-27T13:56:40.718Z,1.83
2019-06-27T13:59:09.840Z,2.20
2019-06-27T14:01:39.312Z,1.60
2019-06-27T14:04:09.133Z,1.60
2019-06-27T14:06:41.248Z,1.97
2019-06-27T14:09:21.968Z,1.53
2019-06-27T14:11:39.680Z,1.83
2019-06-27T14:14:11.415Z,1.60
2019-06-27T14:16:39.553Z,1.77
2019-06-27T14:19:08.546Z,1.50
2019-06-27T14:21:37.993Z,1.67
2019-06-27T14:24:07.196Z,1.37
2019-06-27T14:26:36.413Z,1.90
2019-06-27T14:29:06.017Z,1.90
2019-06-27T14:31:35.001Z,1.97
2019-06-27T14:34:05.275Z,1.50
2019-06-27T14:36:34.481Z,1.33
2019-06-27T14:39:04.554Z,1.97
2019-06-27T14:41:33.718Z,1.40
2019-06-27T14:44:03.667Z,1.63
2019-06-27T14:46:32.869Z,1.40
2019-06-27T14:49:01.993Z,1.00
2019-06-27T14:51:31.164Z,1.87
2019-06-27T14:54:00.189Z,2.03
2019-06-27T14:56:29.367Z,1.60
2019-06-27T14:58:58.483Z,1.50
2019-06-27T15:01:28.071Z,1.70
2019-06-27T15:03:58.160Z,1.90
2019-06-27T15:06:27.332Z,1.60
2019-06-27T15:08:56.533Z,1.90
2019-06-27T15:11:26.216Z,1.90
2019-06-27T15:13:55.434Z,1.83
2019-06-27T15:16:24.875Z,1.97
2019-06-27T15:18:54.100Z,1.80
2019-06-27T15:21:23.307Z,1.87
2019-06-27T15:23:53.704Z,2.07
2019-06-27T15:26:23.097Z,2.27
2019-06-27T15:28:52.308Z,1.70
2019-06-27T15:31:22.573Z,1.97
2019-06-27T15:33:52.248Z,1.90
2019-06-27T15:36:22.938Z,1.70
2019-06-27T15:38:52.248Z,1.80
2019-06-27T15:41:23.784Z,1.90
2019-06-27T15:43:53.069Z,2.10
2019-06-27T15:46:22.241Z,2.70
2019-06-27T15:48:51.337Z,2.03
2019-06-27T15:51:23.084Z,2.03
2019-06-27T15:53:52.510Z,1.87
2019-06-27T15:56:22.082Z,2.40
2019-06-27T15:58:51.379Z,2.07
2019-06-27T16:01:20.634Z,2.47
2019-06-27T16:03:49.817Z,1.77
2019-06-27T16:06:19.254Z,1.70
2019-06-27T16:08:48.395Z,1.23
2019-06-27T16:11:17.575Z,1.80
2019-06-27T16:13:46.565Z,1.27
2019-06-27T16:16:15.700Z,1.80
2019-06-27T16:18:45.037Z,2.10
2019-06-27T16:21:14.352Z,1.30
2019-06-27T16:23:44.073Z,1.80
2019-06-27T16:26:13.126Z,2.13
2019-06-27T16:28:42.751Z,1.87
2019-06-27T16:31:11.932Z,1.30
2019-06-27T16:33:40.962Z,2.10
2019-06-27T16:36:24.509Z,2.50
2019-06-27T16:38:41.140Z,1.70
2019-06-27T16:41:10.596Z,2.67
2019-06-27T16:43:39.735Z,1.80
2019-06-27T16:46:08.954Z,2.87
2019-06-27T16:48:38.097Z,1.73
2019-06-27T16:51:07.525Z,2.33
2019-06-27T16:53:36.725Z,2.20
2019-06-27T16:56:07.125Z,2.40
2019-06-27T16:58:36.276Z,1.67
2019-06-27T17:01:05.555Z,1.90
2019-06-27T17:03:34.758Z,1.70
2019-06-27T17:06:12.609Z,1.90
2019-06-27T17:08:42.210Z,2.23
2019-06-27T17:11:11.285Z,2.90
2019-06-27T17:13:40.390Z,3.10
2019-06-27T17:16:09.547Z,1.87
2019-06-27T17:18:38.715Z,2.00
2019-06-27T17:21:07.858Z,1.50
2019-06-27T17:23:37.081Z,2.17
2019-06-27T17:26:11.390Z,2.27
2019-06-27T17:28:37.272Z,2.00
2019-06-27T17:31:06.552Z,2.23
2019-06-27T17:33:36.152Z,2.30
2019-06-27T17:36:05.376Z,2.20
2019-06-27T17:38:34.507Z,3.27
2019-06-27T17:41:03.608Z,2.23
2019-06-27T17:43:33.094Z,2.03
2019-06-27T17:46:02.280Z,2.20
2019-06-27T17:48:31.302Z,2.40
2019-06-27T17:51:00.470Z,1.97
2019-06-27T17:53:29.840Z,2.13
2019-06-27T17:55:58.996Z,2.07
2019-06-27T17:58:28.130Z,2.63
2019-06-27T18:00:57.233Z,2.53
2019-06-27T18:03:26.429Z,3.23
2019-06-27T18:05:55.424Z,2.80
2019-06-27T18:08:24.660Z,2.00
2019-06-27T18:10:53.739Z,2.23
2019-06-27T18:13:24.103Z,2.33
2019-06-27T18:15:53.276Z,2.83
2019-06-27T18:18:22.395Z,1.83
2019-06-27T18:20:51.476Z,2.77
2019-06-27T18:23:20.498Z,2.37
2019-06-27T18:25:49.529Z,2.30
2019-06-27T18:28:18.880Z,2.60
2019-06-27T18:30:48.079Z,2.20
2019-06-27T18:33:17.220Z,2.30
2019-06-27T18:35:46.407Z,2.33
2019-06-27T18:38:15.455Z,2.67
2019-06-27T18:40:44.550Z,2.73
2019-06-27T18:43:13.698Z,2.10
2019-06-27T18:45:42.873Z,2.47
2019-06-27T18:48:12.266Z,2.17
2019-06-27T18:50:41.468Z,2.37
2019-06-27T18:53:10.638Z,2.20
2019-06-27T18:55:39.723Z,3.27
2019-06-27T18:58:08.875Z,2.17
2019-06-27T19:00:38.137Z,2.70
2019-06-27T19:03:07.417Z,2.70
2019-06-27T19:05:36.595Z,2.93
2019-06-27T19:08:06.045Z,2.63
2019-06-27T19:10:35.124Z,2.10
2019-06-27T19:13:04.215Z,4.27
2019-06-27T19:15:33.328Z,3.10
2019-06-27T19:18:02.485Z,2.83
2019-06-27T19:20:37.535Z,3.10
2019-06-27T19:23:28.536Z,3.23
2019-06-27T19:25:59.800Z,2.43
2019-06-27T19:28:29.179Z,2.90
2019-06-27T19:30:58.298Z,3.00
2019-06-27T19:33:27.444Z,2.90
2019-06-27T19:35:56.644Z,2.80
2019-06-27T19:38:25.987Z,2.43
2019-06-27T19:40:55.156Z,2.00
2019-06-27T19:43:27.999Z,4.93
2019-06-27T19:45:55.177Z,2.50
2019-06-27T19:48:24.328Z,2.40
2019-06-27T19:50:53.439Z,3.37
2019-06-27T19:53:22.459Z,2.60
2019-06-27T19:55:51.664Z,2.63
2019-06-27T19:58:20.798Z,2.57
2019-06-27T20:00:49.918Z,2.50
2019-06-27T20:03:19.071Z,2.90
2019-06-27T20:05:48.199Z,2.57
2019-06-27T20:08:19.525Z,3.50
2019-06-27T20:10:48.103Z,2.90
2019-06-27T20:13:17.207Z,3.30
2019-06-27T20:15:46.339Z,2.90
2019-06-27T20:18:15.556Z,2.70
2019-06-27T20:20:44.696Z,2.80
2019-06-27T20:23:13.994Z,2.57
2019-06-27T20:25:43.215Z,3.37
2019-06-27T20:28:12.384Z,2.60
2019-06-27T20:30:41.596Z,2.33
2019-06-27T20:33:10.687Z,2.90
2019-06-27T20:35:39.900Z,2.53
2019-06-27T20:38:09.037Z,2.90
2019-06-27T20:40:42.150Z,2.60
2019-06-27T20:43:11.450Z,2.33
2019-06-27T20:45:40.672Z,2.83
2019-06-27T20:48:09.896Z,2.47
2019-06-27T20:50:39.119Z,2.20
2019-06-27T20:53:08.466Z,2.57
2019-06-27T20:55:37.672Z,2.90
2019-06-27T20:58:06.751Z,2.50
2019-06-27T21:00:36.207Z,2.50
2019-06-27T21:03:05.582Z,2.37
2019-06-27T21:05:34.840Z,2.53
2019-06-27T21:08:03.950Z,3.03
2019-06-27T21:10:33.127Z,3.30
2019-06-27T21:13:02.251Z,2.73
2019-06-27T21:15:40.289Z,2.60
2019-06-27T21:18:09.391Z,2.63
2019-06-27T21:20:38.596Z,2.50
2019-06-27T21:23:07.897Z,2.60
2019-06-27T21:25:37.118Z,2.10
2019-06-27T21:28:07.296Z,1.90
2019-06-27T21:30:36.603Z,2.37
2019-06-27T21:33:05.768Z,1.93
2019-06-27T21:35:34.867Z,2.67
2019-06-27T21:38:03.992Z,2.90
2019-06-27T21:40:33.193Z,3.17
2019-06-27T21:43:02.350Z,2.40
2019-06-27T21:45:31.519Z,3.20
2019-06-27T21:48:00.622Z,3.23
2019-06-27T21:50:29.815Z,2.67
2019-06-27T21:52:59.074Z,2.47
2019-06-27T21:55:28.595Z,3.67
2019-06-27T21:58:00.010Z,2.93
2019-06-27T22:00:30.642Z,2.50
2019-06-27T22:02:59.904Z,2.80
2019-06-27T22:05:29.059Z,2.67
2019-06-27T22:07:58.257Z,2.53
2019-06-27T22:10:27.488Z,3.00
2019-06-27T22:12:56.591Z,2.53
2019-06-27T22:15:25.787Z,2.53
2019-06-27T22:17:54.954Z,2.90
2019-06-27T22:20:24.236Z,2.37
2019-06-27T22:22:53.394Z,2.70
2019-06-27T22:25:38.823Z,2.30
2019-06-27T22:27:53.344Z,2.97
2019-06-27T22:30:22.563Z,2.70
2019-06-27T22:32:51.643Z,3.20
2019-06-27T22:35:20.852Z,3.43
2019-06-27T22:38:07.891Z,2.60
2019-06-27T22:40:55.004Z,2.70
2019-06-27T22:43:41.877Z,3.33
2019-06-27T22:46:28.946Z,2.83
2019-06-27T22:48:58.963Z,2.80
2019-06-27T22:51:40.012Z,3.40
2019-06-27T22:54:09.836Z,3.37
2019-06-27T22:56:39.028Z,2.90
2019-06-27T22:59:08.378Z,2.90
2019-06-27T23:01:37.499Z,3.63
2019-06-27T23:04:07.427Z,3.00
2019-06-27T23:06:36.787Z,3.93
2019-06-27T23:09:06.243Z,2.77
2019-06-27T23:11:35.420Z,3.27
2019-06-27T23:14:04.597Z,3.10
2019-06-27T23:16:33.608Z,3.20
2019-06-27T23:19:02.633Z,3.43
2019-06-27T23:21:31.737Z,3.77
2019-06-27T23:24:00.839Z,3.53
2019-06-27T23:26:29.958Z,4.17
2019-06-27T23:28:59.271Z,2.90
2019-06-27T23:31:28.467Z,3.60
2019-06-27T23:33:57.499Z,3.37
2019-06-27T23:36:26.609Z,3.57
2019-06-27T23:38:55.708Z,3.10
2019-06-27T23:41:24.820Z,3.50
2019-06-27T23:43:53.979Z,3.40
2019-06-27T23:46:42.437Z,4.20
2019-06-27T23:49:12.194Z,4.07
2019-06-27T23:51:41.597Z,3.07
2019-06-27T23:54:10.763Z,3.10
2019-06-27T23:56:39.930Z,3.50
2019-06-27T23:59:09.377Z,4.00
